createdAt,value
2019-02-22T00:00:53.556Z,39.37
2019-02-22T00:03:22.037Z,29.33
2019-02-22T00:05:50.609Z,20.27
2019-02-22T00:08:19.159Z,19.30
2019-02-22T00:10:47.666Z,15.67
2019-02-22T00:13:16.229Z,16.10
2019-02-22T00:15:44.743Z,17.33
2019-02-22T00:18:13.303Z,17.63
2019-02-22T00:20:41.857Z,16.90
2019-02-22T00:23:10.343Z,19.27
2019-02-22T00:25:38.827Z,17.50
2019-02-22T00:28:07.340Z,18.53
2019-02-22T00:30:35.825Z,19.70
2019-02-22T00:33:04.406Z,19.63
2019-02-22T00:35:32.957Z,16.23
2019-02-22T00:38:01.425Z,16.87
2019-02-22T00:40:29.907Z,16.90
2019-02-22T00:42:58.407Z,18.57
2019-02-22T00:45:26.872Z,20.73
2019-02-22T00:47:55.370Z,19.53
2019-02-22T00:50:23.912Z,19.20
2019-02-22T00:52:52.487Z,17.63
2019-02-22T00:55:20.964Z,17.50
2019-02-22T00:57:49.464Z,18.53
2019-02-22T01:00:18.010Z,18.60
2019-02-22T01:02:46.571Z,19.63
2019-02-22T01:05:15.105Z,21.77
2019-02-22T01:07:44.234Z,18.93
2019-02-22T01:10:12.878Z,20.67
2019-02-22T01:12:41.413Z,19.47
2019-02-22T01:15:09.894Z,18.37
2019-02-22T01:17:38.362Z,21.10
2019-02-22T01:20:06.988Z,20.67
2019-02-22T01:22:35.537Z,19.87
2019-02-22T01:25:04.391Z,17.53
2019-02-22T01:27:32.857Z,22.70
2019-02-22T01:30:01.375Z,21.73
2019-02-22T01:32:29.927Z,18.50
2019-02-22T01:34:58.408Z,22.43
2019-02-22T01:37:26.897Z,23.27
2019-02-22T01:39:55.455Z,22.73
2019-02-22T01:42:23.919Z,19.33
2019-02-22T01:44:52.500Z,19.40
2019-02-22T01:47:21.053Z,25.17
2019-02-22T01:49:49.609Z,25.07
2019-02-22T01:52:18.061Z,24.80
2019-02-22T01:54:46.574Z,23.90
2019-02-22T01:57:15.131Z,24.50
2019-02-22T01:59:43.661Z,23.47
2019-02-22T02:02:12.163Z,26.70
2019-02-22T02:04:40.631Z,24.33
2019-02-22T02:07:09.201Z,26.13
2019-02-22T02:09:37.744Z,24.97
2019-02-22T02:12:06.247Z,22.93
2019-02-22T02:14:34.775Z,25.20
2019-02-22T02:17:03.260Z,24.83
2019-02-22T02:19:31.741Z,25.60
2019-02-22T02:22:00.307Z,24.77
2019-02-22T02:24:28.788Z,23.67
2019-02-22T02:26:57.299Z,25.87
2019-02-22T02:29:25.847Z,25.50
2019-02-22T02:31:54.406Z,22.23
2019-02-22T02:34:22.980Z,23.87
2019-02-22T02:36:51.446Z,22.33
2019-02-22T02:39:19.940Z,22.70
2019-02-22T02:41:48.491Z,23.37
2019-02-22T02:44:16.996Z,23.57
2019-02-22T02:46:45.557Z,22.67
2019-02-22T02:49:14.100Z,23.47
2019-02-22T02:51:42.570Z,22.67
2019-02-22T02:54:11.062Z,23.77
2019-02-22T02:56:39.543Z,23.67
2019-02-22T02:59:08.137Z,23.83
2019-02-22T03:01:36.685Z,22.83
2019-02-22T03:04:05.298Z,25.57
2019-02-22T03:06:38.170Z,23.10
2019-02-22T03:09:08.699Z,23.30
2019-02-22T03:11:37.224Z,23.17
2019-02-22T03:14:05.835Z,23.37
2019-02-22T03:16:34.316Z,21.30
2019-02-22T03:19:02.851Z,25.37
2019-02-22T03:21:31.402Z,24.03
2019-02-22T03:23:59.854Z,22.97
2019-02-22T03:26:28.408Z,23.40
2019-02-22T03:28:56.891Z,23.47
2019-02-22T03:31:28.113Z,21.70
2019-02-22T03:33:56.610Z,22.83
2019-02-22T03:36:25.162Z,21.07
2019-02-22T03:38:53.700Z,22.37
2019-02-22T03:41:32.217Z,25.20
2019-02-22T03:43:55.169Z,21.60
2019-02-22T03:46:23.634Z,21.07
2019-02-22T03:48:52.118Z,23.80
2019-02-22T03:51:20.582Z,22.03
2019-02-22T03:53:49.845Z,24.13
2019-02-22T03:56:18.379Z,23.57
2019-02-22T03:58:46.958Z,23.57
2019-02-22T04:01:15.518Z,21.43
2019-02-22T04:03:44.075Z,22.83
2019-02-22T04:06:12.527Z,33.63
2019-02-22T04:08:41.015Z,27.50
2019-02-22T04:11:09.556Z,22.87
2019-02-22T04:13:38.050Z,22.60
2019-02-22T04:16:06.612Z,23.37
2019-02-22T04:18:35.166Z,20.93
2019-02-22T04:21:03.672Z,20.60
2019-02-22T04:23:32.193Z,21.77
2019-02-22T04:26:00.701Z,23.60
2019-02-22T04:28:29.255Z,21.80
2019-02-22T04:30:57.828Z,23.33
2019-02-22T04:33:26.312Z,25.37
2019-02-22T04:35:54.882Z,22.00
2019-02-22T04:38:23.414Z,23.20
2019-02-22T04:40:51.891Z,23.73
2019-02-22T04:43:20.377Z,21.33
2019-02-22T04:45:48.946Z,24.43
2019-02-22T04:48:17.481Z,24.47
2019-02-22T04:50:45.956Z,23.80
2019-02-22T04:53:14.528Z,24.60
2019-02-22T04:55:43.019Z,22.43
2019-02-22T04:58:11.583Z,22.77
2019-02-22T05:00:40.138Z,23.80
2019-02-22T05:03:08.716Z,24.93
2019-02-22T05:05:37.269Z,22.17
2019-02-22T05:08:05.843Z,21.17
2019-02-22T05:10:34.332Z,22.73
2019-02-22T05:13:02.836Z,21.13
2019-02-22T05:15:31.372Z,23.07
2019-02-22T05:17:59.855Z,24.73
2019-02-22T05:20:28.322Z,25.40
2019-02-22T05:23:03.827Z,23.13
2019-02-22T05:25:26.996Z,23.60
2019-02-22T05:27:55.508Z,24.53
2019-02-22T05:30:24.056Z,25.27
2019-02-22T05:32:52.634Z,25.27
2019-02-22T05:35:21.173Z,25.17
2019-02-22T05:37:49.637Z,25.63
2019-02-22T05:40:18.146Z,24.33
2019-02-22T05:42:46.685Z,23.87
2019-02-22T05:45:15.267Z,25.37
2019-02-22T05:47:43.811Z,25.37
2019-02-22T05:50:15.225Z,24.33
2019-02-22T05:52:43.843Z,25.70
2019-02-22T05:55:12.312Z,23.00
2019-02-22T05:57:40.773Z,25.70
2019-02-22T06:00:09.547Z,24.73
2019-02-22T06:02:38.080Z,23.80
2019-02-22T06:05:07.122Z,24.33
2019-02-22T06:07:35.652Z,23.57
2019-02-22T06:10:06.199Z,25.53
2019-02-22T06:12:35.144Z,22.07
2019-02-22T06:15:04.413Z,20.97
2019-02-22T06:17:32.941Z,24.70
2019-02-22T06:20:01.438Z,23.40
2019-02-22T06:22:30.163Z,22.33
2019-02-22T06:24:58.739Z,23.37
2019-02-22T06:27:27.336Z,21.57
2019-02-22T06:29:55.911Z,22.10
2019-02-22T06:32:24.403Z,23.80
2019-02-22T06:34:52.869Z,22.77
2019-02-22T06:37:21.391Z,24.83
2019-02-22T06:39:49.929Z,22.50
2019-02-22T06:42:18.442Z,22.47
2019-02-22T06:44:47.042Z,19.37
2019-02-22T06:47:15.627Z,19.60
2019-02-22T06:49:44.608Z,20.80
2019-02-22T06:52:13.240Z,21.63
2019-02-22T06:54:41.739Z,20.67
2019-02-22T06:57:10.278Z,19.63
2019-02-22T06:59:38.767Z,19.77
2019-02-22T07:02:07.243Z,19.50
2019-02-22T07:04:35.730Z,22.20
2019-02-22T07:07:04.220Z,20.03
2019-02-22T07:09:32.814Z,23.60
2019-02-22T07:12:02.981Z,19.73
2019-02-22T07:14:31.481Z,22.73
2019-02-22T07:17:00.027Z,20.27
2019-02-22T07:19:28.521Z,21.37
2019-02-22T07:21:57.077Z,21.50
2019-02-22T07:24:25.630Z,21.73
2019-02-22T07:26:54.084Z,22.37
2019-02-22T07:29:22.622Z,20.50
2019-02-22T07:31:51.189Z,19.47
2019-02-22T07:34:19.754Z,19.87
2019-02-22T07:36:48.286Z,21.13
2019-02-22T07:39:27.419Z,18.47
2019-02-22T07:41:49.956Z,19.53
2019-02-22T07:44:18.480Z,17.40
2019-02-22T07:46:46.983Z,19.70
2019-02-22T07:49:23.630Z,19.17
2019-02-22T07:51:52.184Z,19.53
2019-02-22T07:54:20.651Z,16.43
2019-02-22T07:56:49.163Z,18.77
2019-02-22T07:59:17.694Z,17.77
2019-02-22T08:01:48.005Z,18.93
2019-02-22T08:04:16.382Z,17.73
2019-02-22T08:06:44.889Z,17.73
2019-02-22T08:09:13.446Z,18.17
2019-02-22T08:11:41.950Z,17.90
2019-02-22T08:14:10.490Z,17.90
2019-02-22T08:16:39.040Z,17.40
2019-02-22T08:19:07.516Z,18.27
2019-02-22T08:21:35.992Z,16.80
2019-02-22T08:24:04.475Z,18.43
2019-02-22T08:26:33.052Z,16.63
2019-02-22T08:29:01.623Z,16.10
2019-02-22T08:31:30.172Z,17.07
2019-02-22T08:33:58.730Z,16.40
2019-02-22T08:36:27.194Z,15.93
2019-02-22T08:38:55.740Z,17.10
2019-02-22T08:41:24.223Z,15.90
2019-02-22T08:43:52.846Z,14.63
2019-02-22T08:46:21.308Z,16.37
2019-02-22T08:48:49.816Z,14.30
2019-02-22T08:51:18.304Z,16.50
2019-02-22T08:53:46.888Z,14.60
2019-02-22T08:56:15.418Z,13.33
2019-02-22T08:58:43.986Z,13.93
2019-02-22T09:01:12.460Z,12.40
2019-02-22T09:03:49.971Z,12.80
2019-02-22T09:06:11.142Z,13.23
2019-02-22T09:08:39.634Z,15.17
2019-02-22T09:11:08.262Z,13.00
2019-02-22T09:13:43.697Z,13.13
2019-02-22T09:16:06.937Z,13.20
2019-02-22T09:18:35.416Z,12.50
2019-02-22T09:21:04.040Z,13.60
2019-02-22T09:23:32.513Z,12.80
2019-02-22T09:26:01.067Z,11.10
2019-02-22T09:28:29.545Z,8.63
2019-02-22T09:30:58.104Z,8.53
2019-02-22T09:33:26.638Z,7.50
2019-02-22T09:35:55.122Z,6.90
2019-02-22T09:38:23.605Z,5.37
2019-02-22T09:40:52.159Z,5.20
2019-02-22T09:43:20.628Z,5.37
2019-02-22T09:45:49.193Z,5.37
2019-02-22T09:48:17.740Z,5.37
2019-02-22T09:50:46.264Z,5.13
2019-02-22T09:53:14.749Z,6.20
2019-02-22T09:55:43.225Z,5.90
2019-02-22T09:58:11.718Z,5.80
2019-02-22T10:00:40.214Z,5.63
2019-02-22T10:03:08.686Z,5.90
2019-02-22T10:05:37.150Z,5.90
2019-02-22T10:08:05.885Z,5.10
2019-02-22T10:10:34.402Z,5.33
2019-02-22T10:13:02.913Z,5.57
2019-02-22T10:15:31.389Z,5.30
2019-02-22T10:17:59.955Z,4.87
2019-02-22T10:20:28.506Z,4.10
2019-02-22T10:22:57.060Z,3.97
2019-02-22T10:25:25.607Z,3.60
2019-02-22T10:27:54.065Z,3.60
2019-02-22T10:30:22.567Z,3.47
2019-02-22T10:32:51.047Z,3.10
2019-02-22T10:35:19.690Z,3.90
2019-02-22T10:37:48.302Z,3.20
2019-02-22T10:40:16.781Z,3.73
2019-02-22T10:42:45.237Z,3.67
2019-02-22T10:45:13.719Z,3.27
2019-02-22T10:47:43.105Z,3.40
2019-02-22T10:50:11.573Z,3.93
2019-02-22T10:52:40.037Z,3.27
2019-02-22T10:55:11.097Z,2.60
2019-02-22T10:57:39.666Z,2.70
2019-02-22T11:00:13.401Z,3.23
2019-02-22T11:02:41.903Z,2.80
2019-02-22T11:05:10.853Z,3.17
2019-02-22T11:07:39.413Z,3.00
2019-02-22T11:10:10.418Z,2.90
2019-02-22T11:12:38.962Z,3.60
2019-02-22T11:15:09.968Z,2.63
2019-02-22T11:17:38.515Z,2.70
2019-02-22T11:20:11.425Z,2.60
2019-02-22T11:22:40.000Z,2.60
2019-02-22T11:25:13.052Z,2.73
2019-02-22T11:27:41.622Z,2.90
2019-02-22T11:30:12.983Z,2.67
2019-02-22T11:32:41.652Z,2.83
2019-02-22T11:35:10.639Z,2.67
2019-02-22T11:37:39.125Z,2.73
2019-02-22T11:40:11.445Z,2.77
2019-02-22T11:42:39.899Z,2.30
2019-02-22T11:45:09.618Z,2.50
2019-02-22T11:47:38.343Z,2.60
2019-02-22T11:50:10.934Z,2.50
2019-02-22T11:52:39.486Z,3.00
2019-02-22T11:55:09.391Z,2.77
2019-02-22T11:57:37.845Z,2.40
2019-02-22T12:00:18.958Z,2.67
2019-02-22T12:02:47.985Z,3.00
2019-02-22T12:05:16.449Z,2.97
2019-02-22T12:07:44.933Z,2.80
2019-02-22T12:10:14.249Z,2.90
2019-02-22T12:12:45.793Z,2.90
2019-02-22T12:15:14.782Z,2.90
2019-02-22T12:17:43.311Z,3.27
2019-02-22T12:20:12.107Z,2.97
2019-02-22T12:22:40.576Z,3.13
2019-02-22T12:25:13.117Z,3.60
2019-02-22T12:27:41.635Z,3.53
2019-02-22T12:30:13.081Z,3.60
2019-02-22T12:32:41.637Z,3.93
2019-02-22T12:35:10.191Z,3.40
2019-02-22T12:37:38.752Z,3.33
2019-02-22T12:40:09.741Z,3.70
2019-02-22T12:42:38.380Z,3.87
2019-02-22T12:45:09.538Z,3.73
2019-02-22T12:47:38.037Z,4.00
2019-02-22T12:50:11.504Z,4.00
2019-02-22T12:52:40.141Z,4.13
2019-02-22T12:55:09.546Z,3.67
2019-02-22T12:57:38.143Z,3.13
2019-02-22T13:00:14.803Z,3.00
2019-02-22T13:02:43.265Z,3.30
2019-02-22T13:05:24.168Z,3.80
2019-02-22T13:07:53.228Z,3.00
2019-02-22T13:10:21.787Z,3.20
2019-02-22T13:12:50.343Z,3.37
2019-02-22T13:15:18.889Z,3.57
2019-02-22T13:17:47.350Z,4.40
2019-02-22T13:20:15.851Z,3.40
2019-02-22T13:22:44.391Z,2.90
2019-02-22T13:25:13.023Z,3.50
2019-02-22T13:27:41.561Z,3.20
2019-02-22T13:30:14.939Z,2.73
2019-02-22T13:32:43.491Z,2.97
2019-02-22T13:35:12.114Z,3.77
2019-02-22T13:37:40.783Z,2.53
2019-02-22T13:40:14.298Z,3.37
2019-02-22T13:42:42.932Z,3.80
2019-02-22T13:45:12.218Z,3.40
2019-02-22T13:47:40.796Z,3.50
2019-02-22T13:50:15.412Z,3.87
2019-02-22T13:52:43.997Z,4.27
2019-02-22T13:55:13.086Z,3.63
2019-02-22T13:57:41.593Z,4.47
2019-02-22T14:00:18.258Z,4.50
2019-02-22T14:02:46.813Z,3.97
2019-02-22T14:05:15.277Z,3.90
2019-02-22T14:07:54.032Z,3.37
2019-02-22T14:10:22.726Z,4.20
2019-02-22T14:12:51.275Z,3.90
2019-02-22T14:15:19.802Z,3.90
2019-02-22T14:17:48.415Z,3.10
2019-02-22T14:20:17.005Z,3.70
2019-02-22T14:22:46.222Z,3.23
2019-02-22T14:25:14.702Z,3.83
2019-02-22T14:27:43.285Z,3.07
2019-02-22T14:30:16.663Z,3.40
2019-02-22T14:32:45.480Z,3.73
2019-02-22T14:35:14.027Z,4.30
2019-02-22T14:37:42.496Z,4.43
2019-02-22T14:40:13.120Z,4.90
2019-02-22T14:42:41.658Z,4.03
2019-02-22T14:45:11.465Z,4.43
2019-02-22T14:47:40.054Z,4.13
2019-02-22T14:50:14.248Z,4.00
2019-02-22T14:52:42.704Z,3.13
2019-02-22T14:55:11.270Z,2.67
2019-02-22T14:57:39.823Z,2.50
2019-02-22T15:00:11.782Z,3.20
2019-02-22T15:02:40.254Z,3.13
2019-02-22T15:05:10.034Z,3.40
2019-02-22T15:07:38.562Z,3.13
2019-02-22T15:10:09.089Z,3.40
2019-02-22T15:12:37.648Z,2.97
2019-02-22T15:15:09.216Z,3.10
2019-02-22T15:17:39.362Z,3.97
2019-02-22T15:20:08.890Z,3.43
2019-02-22T15:22:37.472Z,3.43
2019-02-22T15:25:11.185Z,3.97
2019-02-22T15:27:39.678Z,4.17
2019-02-22T15:30:10.780Z,4.77
2019-02-22T15:32:39.335Z,4.80
2019-02-22T15:35:15.520Z,4.47
2019-02-22T15:37:44.011Z,4.17
2019-02-22T15:40:13.447Z,4.57
2019-02-22T15:42:42.026Z,4.47
2019-02-22T15:45:15.209Z,5.10
2019-02-22T15:47:43.759Z,5.00
2019-02-22T15:50:14.487Z,4.60
2019-02-22T15:52:43.394Z,5.07
2019-02-22T15:55:14.288Z,5.60
2019-02-22T15:57:42.201Z,6.83
2019-02-22T16:00:22.887Z,5.33
2019-02-22T16:02:51.424Z,6.00
2019-02-22T16:05:21.521Z,6.13
2019-02-22T16:07:50.114Z,5.60
2019-02-22T16:10:18.714Z,5.23
2019-02-22T16:12:47.179Z,4.83
2019-02-22T16:15:16.447Z,5.20
2019-02-22T16:17:44.928Z,4.80
2019-02-22T16:20:14.119Z,7.43
2019-02-22T16:22:42.706Z,5.37
2019-02-22T16:25:18.989Z,5.83
2019-02-22T16:27:41.384Z,6.23
2019-02-22T16:30:13.075Z,5.43
2019-02-22T16:32:41.533Z,6.27
2019-02-22T16:35:10.029Z,5.63
2019-02-22T16:37:38.563Z,5.03
2019-02-22T16:40:09.706Z,5.20
2019-02-22T16:42:38.277Z,5.00
2019-02-22T16:45:11.457Z,4.67
2019-02-22T16:47:40.641Z,5.00
2019-02-22T16:50:13.910Z,4.93
2019-02-22T16:52:45.091Z,5.07
2019-02-22T16:55:14.619Z,5.57
2019-02-22T16:57:43.234Z,4.53
2019-02-22T17:00:13.951Z,4.63
2019-02-22T17:02:42.592Z,5.17
2019-02-22T17:05:13.482Z,4.93
2019-02-22T17:07:41.979Z,4.93
2019-02-22T17:10:11.395Z,5.90
2019-02-22T17:12:39.951Z,5.20
2019-02-22T17:15:11.117Z,4.97
2019-02-22T17:17:39.609Z,4.57
2019-02-22T17:20:10.860Z,4.17
2019-02-22T17:22:39.362Z,4.67
2019-02-22T17:25:10.843Z,4.47
2019-02-22T17:27:39.366Z,4.40
2019-02-22T17:30:15.789Z,4.67
2019-02-22T17:32:44.247Z,4.60
2019-02-22T17:35:12.807Z,4.33
2019-02-22T17:37:41.280Z,4.67
2019-02-22T17:40:12.404Z,5.10
2019-02-22T17:42:40.946Z,5.90
2019-02-22T17:45:09.499Z,6.13
2019-02-22T17:47:38.065Z,5.30
2019-02-22T17:50:10.535Z,5.63
2019-02-22T17:52:38.983Z,6.37
2019-02-22T17:55:09.282Z,6.10
2019-02-22T17:57:37.884Z,5.47
2019-02-22T18:00:11.249Z,5.10
2019-02-22T18:02:39.731Z,5.40
2019-02-22T18:05:08.361Z,5.43
2019-02-22T18:07:36.891Z,5.30
2019-02-22T18:10:08.121Z,5.93
2019-02-22T18:12:36.707Z,6.67
2019-02-22T18:15:08.071Z,6.23
2019-02-22T18:17:36.573Z,5.53
2019-02-22T18:20:07.577Z,6.37
2019-02-22T18:22:36.154Z,6.50
2019-02-22T18:25:09.056Z,7.30
2019-02-22T18:27:37.611Z,7.20
2019-02-22T18:30:09.074Z,6.23
2019-02-22T18:32:37.550Z,7.23
2019-02-22T18:35:07.071Z,7.53
2019-02-22T18:37:35.653Z,6.90
2019-02-22T18:40:07.090Z,6.80
2019-02-22T18:42:35.597Z,7.23
2019-02-22T18:45:05.258Z,6.47
2019-02-22T18:47:33.762Z,7.13
2019-02-22T18:50:02.226Z,6.80
2019-02-22T18:52:30.762Z,7.60
2019-02-22T18:54:59.300Z,7.10
2019-02-22T18:57:27.874Z,6.33
2019-02-22T18:59:56.369Z,6.87
2019-02-22T19:02:24.921Z,7.73
2019-02-22T19:04:53.473Z,9.03
2019-02-22T19:07:22.002Z,9.97
2019-02-22T19:09:50.503Z,11.00
2019-02-22T19:12:19.053Z,8.43
2019-02-22T19:14:47.625Z,10.50
2019-02-22T19:17:16.079Z,9.03
2019-02-22T19:19:44.581Z,10.83
2019-02-22T19:22:13.063Z,9.43
2019-02-22T19:24:41.622Z,10.10
2019-02-22T19:27:10.108Z,10.40
2019-02-22T19:29:38.751Z,9.37
2019-02-22T19:32:07.280Z,9.00
2019-02-22T19:34:35.739Z,8.77
2019-02-22T19:37:04.230Z,9.23
2019-02-22T19:39:32.932Z,10.73
2019-02-22T19:42:01.466Z,10.97
2019-02-22T19:44:29.961Z,11.47
2019-02-22T19:46:58.553Z,12.30
2019-02-22T19:49:27.098Z,11.60
2019-02-22T19:51:55.678Z,10.77
2019-02-22T19:54:24.159Z,10.83
2019-02-22T19:56:52.723Z,10.83
2019-02-22T19:59:21.214Z,11.83
2019-02-22T20:01:49.778Z,12.13
2019-02-22T20:04:18.264Z,12.10
2019-02-22T20:06:47.078Z,10.73
2019-02-22T20:09:15.614Z,11.67
2019-02-22T20:11:44.130Z,13.27
2019-02-22T20:14:12.627Z,11.70
2019-02-22T20:16:41.166Z,13.30
2019-02-22T20:19:09.770Z,12.47
2019-02-22T20:21:38.336Z,11.80
2019-02-22T20:24:06.890Z,12.77
2019-02-22T20:26:35.363Z,11.67
2019-02-22T20:29:03.888Z,12.70
2019-02-22T20:31:32.466Z,13.50
2019-02-22T20:34:00.991Z,12.43
2019-02-22T20:36:29.491Z,11.00
2019-02-22T20:38:58.071Z,12.77
2019-02-22T20:41:26.541Z,11.53
2019-02-22T20:43:55.042Z,11.73
2019-02-22T20:46:23.606Z,10.83
2019-02-22T20:49:00.614Z,11.23
2019-02-22T20:51:22.370Z,11.40
2019-02-22T20:53:50.916Z,12.37
2019-02-22T20:56:19.407Z,12.37
2019-02-22T20:58:47.892Z,11.60
2019-02-22T21:01:16.488Z,11.33
2019-02-22T21:03:45.014Z,12.47
2019-02-22T21:06:13.510Z,11.07
2019-02-22T21:08:42.089Z,11.43
2019-02-22T21:11:10.602Z,11.00
2019-02-22T21:13:39.193Z,11.40
2019-02-22T21:16:07.723Z,11.63
2019-02-22T21:18:36.200Z,11.37
2019-02-22T21:21:04.709Z,12.57
2019-02-22T21:23:33.268Z,11.47
2019-02-22T21:26:01.730Z,12.00
2019-02-22T21:28:30.222Z,10.23
2019-02-22T21:30:58.691Z,11.17
2019-02-22T21:33:27.178Z,11.87
2019-02-22T21:35:55.656Z,10.57
2019-02-22T21:38:24.152Z,11.47
2019-02-22T21:40:52.629Z,14.63
2019-02-22T21:43:21.150Z,15.03
2019-02-22T21:45:49.690Z,14.40
2019-02-22T21:48:27.119Z,13.37
2019-02-22T21:50:48.382Z,13.67
2019-02-22T21:53:16.876Z,12.30
2019-02-22T21:55:45.341Z,13.30
2019-02-22T21:58:13.848Z,12.63
2019-02-22T22:00:42.331Z,10.87
2019-02-22T22:03:10.873Z,11.20
2019-02-22T22:05:39.348Z,9.83
2019-02-22T22:08:07.848Z,10.10
2019-02-22T22:10:36.432Z,11.27
2019-02-22T22:13:04.976Z,10.07
2019-02-22T22:15:33.539Z,11.27
2019-02-22T22:18:02.015Z,10.80
2019-02-22T22:20:30.610Z,10.77
2019-02-22T22:22:59.155Z,10.17
2019-02-22T22:25:27.759Z,11.40
2019-02-22T22:27:56.262Z,10.57
2019-02-22T22:30:24.819Z,11.50
2019-02-22T22:32:53.301Z,11.50
2019-02-22T22:35:21.889Z,10.83
2019-02-22T22:37:50.420Z,10.40
2019-02-22T22:40:18.949Z,10.27
2019-02-22T22:42:47.518Z,15.63
2019-02-22T22:45:17.615Z,11.47
2019-02-22T22:47:46.247Z,9.57
2019-02-22T22:50:16.694Z,9.17
2019-02-22T22:52:45.261Z,9.97
2019-02-22T22:55:13.740Z,8.80
2019-02-22T22:57:42.285Z,9.97
2019-02-22T23:00:16.700Z,9.73
2019-02-22T23:02:45.258Z,9.57
2019-02-22T23:05:13.815Z,9.57
2019-02-22T23:07:42.364Z,11.43
2019-02-22T23:10:10.852Z,9.67
2019-02-22T23:12:39.386Z,11.60
2019-02-22T23:15:07.960Z,10.60
2019-02-22T23:17:36.511Z,10.93
2019-02-22T23:20:06.957Z,10.40
2019-02-22T23:22:35.498Z,9.43
2019-02-22T23:25:05.098Z,10.20
2019-02-22T23:27:33.559Z,9.23
2019-02-22T23:30:02.061Z,9.27
2019-02-22T23:32:30.611Z,9.60
2019-02-22T23:34:59.097Z,9.13
2019-02-22T23:37:27.570Z,9.83
2019-02-22T23:39:56.051Z,8.83
2019-02-22T23:42:24.509Z,7.90
2019-02-22T23:44:53.007Z,9.63
2019-02-22T23:47:21.545Z,9.50
2019-02-22T23:49:50.044Z,8.83
2019-02-22T23:52:18.580Z,8.63
2019-02-22T23:54:47.075Z,9.50
2019-02-22T23:57:15.573Z,8.93
2019-02-22T23:59:44.113Z,9.03
